Time;durP1;ratioP1;P1;durP2;ratioP2;P2;SDS_P1;SDS_P2;PMS_P1;PMS_P2;Temp;Humidity;BMP_temperature;BMP_pressure;BME280_temperature;BME280_humidity;BME280_pressure;Samples;Min_cycle;Max_cycle;Signal;HPM_P1;HPM_P2
2024/02/28 00:00:27;;;;;;;67.50;24.93;;;;;;;;;;5050762;28;20213;-76
2024/02/28 00:02:53;;;;;;;116.57;25.97;;;;;;;;;;5034289;28;20263;-76
2024/02/28 00:05:19;;;;;;;98.03;26.73;;;;;;;;;;5043890;28;20182;-76
2024/02/28 00:07:45;;;;;;;109.47;26.80;;;;;;;;;;5056437;28;20181;-75
2024/02/28 00:10:11;;;;;;;152.47;27.47;;;;;;;;;;5060901;28;20185;-75
2024/02/28 00:12:38;;;;;;;79.47;24.90;;;;;;;;;;5065124;28;20572;-75
2024/02/28 00:15:05;;;;;;;61.93;24.63;;;;;;;;;;5065081;28;20233;-75
2024/02/28 00:17:30;;;;;;;77.87;26.07;;;;;;;;;;5065736;28;20201;-76
2024/02/28 00:19:56;;;;;;;81.67;25.30;;;;;;;;;;5047721;28;20602;-75
2024/02/28 00:22:21;;;;;;;83.33;27.00;;;;;;;;;;5066684;28;20207;-75
2024/02/28 00:24:47;;;;;;;85.07;26.10;;;;;;;;;;5065983;28;20566;-75
2024/02/28 00:27:13;;;;;;;81.50;25.50;;;;;;;;;;5058969;28;20197;-75
2024/02/28 00:29:39;;;;;;;82.93;25.23;;;;;;;;;;5054432;28;20197;-74
2024/02/28 00:32:04;;;;;;;81.13;24.47;;;;;;;;;;5056306;28;20197;-74
2024/02/28 00:34:30;;;;;;;101.30;24.47;;;;;;;;;;5059485;28;20273;-75
2024/02/28 00:36:55;;;;;;;94.80;22.47;;;;;;;;;;5059894;28;20185;-75
2024/02/28 00:39:21;;;;;;;78.53;21.70;;;;;;;;;;5061908;28;20642;-75
2024/02/28 00:41:46;;;;;;;142.77;23.23;;;;;;;;;;5054048;28;20234;-75
2024/02/28 00:44:12;;;;;;;97.23;21.40;;;;;;;;;;5060708;28;20192;-75
2024/02/28 00:46:39;;;;;;;183.03;31.10;;;;;;;;;;5059569;28;20601;-75
2024/02/28 00:49:04;;;;;;;184.33;24.23;;;;;;;;;;5065478;28;20196;-75
2024/02/28 00:51:30;;;;;;;99.97;21.83;;;;;;;;;;5067940;28;20291;-75
2024/02/28 00:53:56;;;;;;;157.67;23.70;;;;;;;;;;5048934;28;20228;-75
2024/02/28 00:56:21;;;;;;;145.03;23.30;;;;;;;;;;5054666;28;20204;-75
2024/02/28 00:58:47;;;;;;;131.43;22.43;;;;;;;;;;5062834;28;20271;-75
2024/02/28 01:01:12;;;;;;;115.60;22.80;;;;;;;;;;5053049;28;20197;-75
2024/02/28 01:03:38;;;;;;;173.50;25.87;;;;;;;;;;5066930;28;20219;-75
2024/02/28 01:06:04;;;;;;;136.77;22.97;;;;;;;;;;5054383;28;20669;-75
2024/02/28 01:08:29;;;;;;;109.07;23.93;;;;;;;;;;5062065;28;20217;-75
2024/02/28 01:10:55;;;;;;;143.23;22.70;;;;;;;;;;5060866;28;20185;-75
2024/02/28 01:13:20;;;;;;;132.03;24.50;;;;;;;;;;5059152;28;20196;-75
2024/02/28 01:15:46;;;;;;;119.37;23.70;;;;;;;;;;5055741;28;20229;-75
2024/02/28 01:18:11;;;;;;;115.63;22.43;;;;;;;;;;5062849;28;20674;-75
2024/02/28 01:20:37;;;;;;;138.27;24.03;;;;;;;;;;5063699;28;20644;-75
2024/02/28 01:23:03;;;;;;;208.00;24.70;;;;;;;;;;5055216;28;20192;-75
2024/02/28 01:25:28;;;;;;;95.43;22.63;;;;;;;;;;5070314;28;20188;-75
2024/02/28 01:27:55;;;;;;;102.50;22.37;;;;;;;;;;5067289;28;20209;-75
2024/02/28 01:30:21;;;;;;;96.87;21.27;;;;;;;;;;5061710;28;20585;-75
2024/02/28 01:32:46;;;;;;;182.00;24.80;;;;;;;;;;5070843;28;20288;-75
2024/02/28 01:35:12;;;;;;;116.90;22.10;;;;;;;;;;5057746;28;20719;-75
2024/02/28 01:37:37;;;;;;;110.17;21.60;;;;;;;;;;5068645;28;20192;-75
2024/02/28 01:40:04;;;;;;;112.13;23.07;;;;;;;;;;5064909;28;20644;-75
2024/02/28 01:42:30;;;;;;;130.67;23.23;;;;;;;;;;5066224;28;20193;-75
2024/02/28 01:44:55;;;;;;;90.43;21.03;;;;;;;;;;5066110;28;20277;-75
2024/02/28 01:47:21;;;;;;;82.70;20.57;;;;;;;;;;5065891;28;20653;-75
2024/02/28 01:49:47;;;;;;;80.77;21.97;;;;;;;;;;5063374;28;20201;-75
2024/02/28 01:52:13;;;;;;;76.00;22.00;;;;;;;;;;5058501;28;20200;-75
2024/02/28 01:54:39;;;;;;;90.43;20.93;;;;;;;;;;5064088;28;20231;-75
2024/02/28 01:57:06;;;;;;;106.23;24.23;;;;;;;;;;5057741;28;20193;-75
2024/02/28 01:59:32;;;;;;;71.57;21.33;;;;;;;;;;5064536;28;20554;-75
2024/02/28 02:01:57;;;;;;;102.93;23.97;;;;;;;;;;5065422;28;20189;-75
2024/02/28 02:04:23;;;;;;;95.03;23.23;;;;;;;;;;5063924;28;20200;-75
2024/02/28 02:06:49;;;;;;;90.10;24.13;;;;;;;;;;5060508;28;20279;-75
2024/02/28 02:09:16;;;;;;;90.73;22.93;;;;;;;;;;5061552;28;20189;-75
2024/02/28 02:11:41;;;;;;;89.13;22.17;;;;;;;;;;5069046;28;20200;-75
2024/02/28 02:14:07;;;;;;;110.30;24.60;;;;;;;;;;5061900;28;20665;-75
2024/02/28 02:16:32;;;;;;;100.67;22.27;;;;;;;;;;5050984;28;20196;-75
2024/02/28 02:18:58;;;;;;;102.97;23.53;;;;;;;;;;5065201;28;20227;-75
2024/02/28 02:21:26;;;;;;;81.07;23.13;;;;;;;;;;5056947;28;20267;-75
2024/02/28 02:23:52;;;;;;;89.97;22.97;;;;;;;;;;5068495;28;20229;-75
2024/02/28 02:26:18;;;;;;;85.67;21.50;;;;;;;;;;5066177;28;20718;-75
2024/02/28 02:28:43;;;;;;;80.43;23.53;;;;;;;;;;5065056;28;20192;-75
2024/02/28 02:31:10;;;;;;;107.83;23.63;;;;;;;;;;5047742;28;20177;-75
2024/02/28 02:33:35;;;;;;;101.67;24.07;;;;;;;;;;5059915;28;20198;-75
2024/02/28 02:36:01;;;;;;;89.30;22.47;;;;;;;;;;5058991;28;20566;-75
2024/02/28 02:38:26;;;;;;;79.03;22.03;;;;;;;;;;5070837;28;20188;-75
2024/02/28 02:40:53;;;;;;;72.87;24.13;;;;;;;;;;5067486;28;20253;-75
2024/02/28 02:43:18;;;;;;;83.77;23.67;;;;;;;;;;5065715;28;20192;-75
2024/02/28 02:45:44;;;;;;;84.30;24.57;;;;;;;;;;5065214;28;20185;-75
2024/02/28 02:48:10;;;;;;;62.27;22.70;;;;;;;;;;5050853;28;20185;-75
2024/02/28 02:50:36;;;;;;;73.70;22.00;;;;;;;;;;5063841;28;20178;-75
2024/02/28 02:53:02;;;;;;;67.63;24.13;;;;;;;;;;5063883;28;20594;-75
2024/02/28 02:55:28;;;;;;;67.00;24.37;;;;;;;;;;5067913;28;20200;-75
2024/02/28 02:57:54;;;;;;;78.90;23.60;;;;;;;;;;5068371;28;20246;-75
2024/02/28 03:00:20;;;;;;;68.70;22.07;;;;;;;;;;5066853;28;20362;-75
2024/02/28 03:02:46;;;;;;;73.57;23.50;;;;;;;;;;5059761;28;20411;-75
2024/02/28 03:05:11;;;;;;;73.50;22.43;;;;;;;;;;5048356;28;20653;-75
2024/02/28 03:07:37;;;;;;;62.00;22.53;;;;;;;;;;5069480;28;20196;-75
2024/02/28 03:10:03;;;;;;;85.23;23.13;;;;;;;;;;5064417;28;20245;-75
2024/02/28 03:12:28;;;;;;;83.37;22.47;;;;;;;;;;5069759;28;20177;-75
2024/02/28 03:14:54;;;;;;;64.53;23.20;;;;;;;;;;5067232;28;20299;-75
2024/02/28 03:17:20;;;;;;;96.13;25.00;;;;;;;;;;5064995;28;20554;-74
2024/02/28 03:19:45;;;;;;;70.83;23.20;;;;;;;;;;5060344;28;20205;-74
2024/02/28 03:22:10;;;;;;;75.70;24.10;;;;;;;;;;5064192;28;20188;-74
2024/02/28 03:24:36;;;;;;;68.43;23.17;;;;;;;;;;5062299;28;20181;-75
2024/02/28 03:27:05;;;;;;;61.97;23.83;;;;;;;;;;5061626;28;20268;-74
2024/02/28 03:29:30;;;;;;;97.87;24.10;;;;;;;;;;5058648;28;20700;-74
2024/02/28 03:31:56;;;;;;;95.43;24.30;;;;;;;;;;5059257;28;20188;-74
2024/02/28 03:34:22;;;;;;;80.37;24.90;;;;;;;;;;5062674;28;20225;-74
2024/02/28 03:36:47;;;;;;;83.27;23.40;;;;;;;;;;5052496;28;20503;-75
2024/02/28 03:39:13;;;;;;;69.70;23.10;;;;;;;;;;5041028;28;20259;-74
2024/02/28 03:41:38;;;;;;;91.37;24.23;;;;;;;;;;5062026;28;20192;-75
2024/02/28 03:44:05;;;;;;;88.43;25.07;;;;;;;;;;5059831;28;20192;-75
2024/02/28 03:46:30;;;;;;;86.47;25.57;;;;;;;;;;5046898;28;20183;-75
2024/02/28 03:48:57;;;;;;;117.23;24.40;;;;;;;;;;5055572;28;20272;-75
2024/02/28 03:51:22;;;;;;;82.63;25.57;;;;;;;;;;5058141;28;20542;-75
2024/02/28 03:53:48;;;;;;;114.13;25.67;;;;;;;;;;5055229;28;20196;-75
2024/02/28 03:56:21;;;;;;;108.67;27.93;;;;;;;;;;5049648;28;20200;-74
2024/02/28 03:58:46;;;;;;;75.60;22.20;;;;;;;;;;5057949;28;20193;-74
2024/02/28 04:01:11;;;;;;;130.90;26.33;;;;;;;;;;5054317;28;20559;-74
2024/02/28 04:03:37;;;;;;;66.73;22.03;;;;;;;;;;5057763;28;20189;-76
2024/02/28 04:06:02;;;;;;;93.07;24.07;;;;;;;;;;5065492;28;20191;-76
2024/02/28 04:08:28;;;;;;;99.13;25.63;;;;;;;;;;5069096;28;20189;-74
2024/02/28 04:10:53;;;;;;;80.77;23.47;;;;;;;;;;5058952;28;20306;-74
2024/02/28 04:13:19;;;;;;;82.87;25.93;;;;;;;;;;5064202;28;20185;-75
2024/02/28 04:15:45;;;;;;;82.13;25.77;;;;;;;;;;5066716;28;20425;-75
2024/02/28 04:18:11;;;;;;;84.30;24.33;;;;;;;;;;5059570;28;20329;-75
2024/02/28 04:20:38;;;;;;;108.83;26.80;;;;;;;;;;5055469;28;20632;-75
2024/02/28 04:23:03;;;;;;;75.77;25.70;;;;;;;;;;5051342;28;20185;-75
2024/02/28 04:25:29;;;;;;;75.77;23.97;;;;;;;;;;5059925;28;20184;-75
2024/02/28 04:27:54;;;;;;;103.73;25.73;;;;;;;;;;5067293;28;20203;-75
2024/02/28 04:30:20;;;;;;;85.47;25.20;;;;;;;;;;5063159;28;20188;-75
2024/02/28 04:32:45;;;;;;;81.83;26.43;;;;;;;;;;5069740;28;20177;-76
2024/02/28 04:35:11;;;;;;;79.60;26.93;;;;;;;;;;5060219;28;20552;-75
2024/02/28 04:37:36;;;;;;;83.03;27.57;;;;;;;;;;5066368;28;20192;-75
2024/02/28 04:40:03;;;;;;;99.83;30.53;;;;;;;;;;5044343;28;20189;-75
2024/02/28 04:42:28;;;;;;;76.97;25.90;;;;;;;;;;5047482;28;20184;-75
2024/02/28 04:44:54;;;;;;;75.83;25.93;;;;;;;;;;5067092;28;20186;-75
2024/02/28 04:47:19;;;;;;;76.20;26.50;;;;;;;;;;5060077;28;20275;-75
2024/02/28 04:49:45;;;;;;;88.47;27.63;;;;;;;;;;5062969;28;20188;-75
2024/02/28 04:52:10;;;;;;;66.53;25.87;;;;;;;;;;5056794;28;20327;-75
2024/02/28 04:54:35;;;;;;;73.23;27.50;;;;;;;;;;5063727;28;20213;-76
2024/02/28 04:57:02;;;;;;;75.00;27.43;;;;;;;;;;5068622;28;20245;-75
2024/02/28 04:59:28;;;;;;;76.53;25.43;;;;;;;;;;5068167;28;20192;-75
2024/02/28 05:01:53;;;;;;;80.83;27.77;;;;;;;;;;5065907;28;20197;-75
2024/02/28 05:04:19;;;;;;;84.93;29.60;;;;;;;;;;5065027;28;20683;-76
2024/02/28 05:06:44;;;;;;;78.60;28.20;;;;;;;;;;5062863;28;20284;-75
2024/02/28 05:09:10;;;;;;;89.97;29.83;;;;;;;;;;5077794;28;20185;-75
2024/02/28 05:11:35;;;;;;;74.03;26.97;;;;;;;;;;5054828;28;20189;-75
2024/02/28 05:14:01;;;;;;;76.27;26.17;;;;;;;;;;5044879;28;20212;-75
2024/02/28 05:16:26;;;;;;;87.30;27.30;;;;;;;;;;5071240;28;20195;-75
2024/02/28 05:18:51;;;;;;;71.60;26.10;;;;;;;;;;5066750;28;20570;-75
2024/02/28 05:21:17;;;;;;;78.87;25.70;;;;;;;;;;5069834;28;20568;-75
2024/02/28 05:23:42;;;;;;;81.53;28.73;;;;;;;;;;5064612;28;20242;-75
2024/02/28 05:26:08;;;;;;;91.37;29.70;;;;;;;;;;5066738;28;20324;-75
2024/02/28 05:28:34;;;;;;;78.27;29.47;;;;;;;;;;5066333;28;20215;-75
2024/02/28 05:31:03;;;;;;;80.07;28.47;;;;;;;;;;5070234;28;20193;-75
2024/02/28 05:33:29;;;;;;;75.50;29.10;;;;;;;;;;5060477;28;20192;-75
2024/02/28 05:35:54;;;;;;;85.40;28.50;;;;;;;;;;5059467;28;20213;-75
2024/02/28 05:38:20;;;;;;;70.77;27.20;;;;;;;;;;5065626;28;20216;-75
2024/02/28 05:40:45;;;;;;;81.97;28.33;;;;;;;;;;5065373;28;20614;-75
2024/02/28 05:43:11;;;;;;;68.47;25.13;;;;;;;;;;5062714;28;20200;-74
2024/02/28 05:45:36;;;;;;;68.50;26.23;;;;;;;;;;5045850;28;20178;-76
2024/02/28 05:48:02;;;;;;;69.93;26.13;;;;;;;;;;5056173;28;20190;-74
2024/02/28 05:50:29;;;;;;;64.13;26.33;;;;;;;;;;5063527;28;20181;-74
2024/02/28 05:52:55;;;;;;;72.13;28.00;;;;;;;;;;5070735;28;20289;-74
2024/02/28 05:55:23;;;;;;;69.80;26.87;;;;;;;;;;5062587;28;20837;-74
2024/02/28 05:57:49;;;;;;;77.73;26.73;;;;;;;;;;5064738;28;20597;-75
2024/02/28 06:00:14;;;;;;;65.40;24.77;;;;;;;;;;5064475;28;20251;-75
2024/02/28 06:02:41;;;;;;;73.43;27.33;;;;;;;;;;5054679;28;20665;-74
2024/02/28 06:05:07;;;;;;;63.07;26.37;;;;;;;;;;5044824;28;20182;-74
2024/02/28 06:07:33;;;;;;;61.67;26.00;;;;;;;;;;5045881;28;20188;-74
2024/02/28 06:09:58;;;;;;;67.30;26.97;;;;;;;;;;5072501;28;20184;-74
2024/02/28 06:12:24;;;;;;;67.40;26.63;;;;;;;;;;5057102;28;20190;-76
2024/02/28 06:14:49;;;;;;;71.20;25.53;;;;;;;;;;5048714;28;20228;-74
2024/02/28 06:17:14;;;;;;;71.13;27.57;;;;;;;;;;5067925;28;20185;-75
2024/02/28 06:19:40;;;;;;;72.90;27.10;;;;;;;;;;5062825;28;20323;-75
2024/02/28 06:22:07;;;;;;;67.83;26.73;;;;;;;;;;5064324;28;20196;-75
2024/02/28 06:24:34;;;;;;;72.67;26.97;;;;;;;;;;5067707;28;20185;-75
2024/02/28 06:26:59;;;;;;;65.97;27.00;;;;;;;;;;5067168;28;20184;-75
2024/02/28 06:29:24;;;;;;;81.23;29.00;;;;;;;;;;5057080;28;20189;-75
2024/02/28 06:31:53;;;;;;;80.37;29.00;;;;;;;;;;5064208;28;20197;-75
2024/02/28 06:34:18;;;;;;;76.93;29.90;;;;;;;;;;5063817;28;20247;-75
2024/02/28 06:36:44;;;;;;;75.17;28.90;;;;;;;;;;5061214;28;20181;-75
2024/02/28 06:39:09;;;;;;;78.30;29.43;;;;;;;;;;5058514;28;20657;-75
2024/02/28 06:41:35;;;;;;;79.87;30.00;;;;;;;;;;5063659;28;20228;-75
2024/02/28 06:44:00;;;;;;;71.57;28.47;;;;;;;;;;5068756;28;20241;-75
2024/02/28 06:46:26;;;;;;;70.23;28.40;;;;;;;;;;5067448;28;20189;-76
2024/02/28 06:48:51;;;;;;;68.57;26.17;;;;;;;;;;5061770;28;20648;-76
2024/02/28 06:51:17;;;;;;;78.97;29.13;;;;;;;;;;5073130;28;20663;-75
2024/02/28 06:53:43;;;;;;;74.13;29.40;;;;;;;;;;5076074;28;20619;-75
2024/02/28 06:56:09;;;;;;;73.63;29.50;;;;;;;;;;5066478;28;20299;-75
2024/02/28 06:58:34;;;;;;;72.40;30.33;;;;;;;;;;5068952;28;20188;-75
2024/02/28 07:01:00;;;;;;;79.37;31.57;;;;;;;;;;5068956;28;20200;-75
2024/02/28 07:03:25;;;;;;;74.63;29.77;;;;;;;;;;5064465;28;20295;-75
2024/02/28 07:05:51;;;;;;;72.87;28.90;;;;;;;;;;5064712;28;20638;-75
2024/02/28 07:08:17;;;;;;;71.00;28.47;;;;;;;;;;5063331;28;20238;-75
2024/02/28 07:10:43;;;;;;;77.33;31.50;;;;;;;;;;5067018;28;20196;-75
2024/02/28 07:13:10;;;;;;;74.00;30.83;;;;;;;;;;5059577;28;20234;-75
2024/02/28 07:15:36;;;;;;;75.70;30.00;;;;;;;;;;5048944;28;20213;-76
2024/02/28 07:18:01;;;;;;;72.23;30.67;;;;;;;;;;5067210;28;20591;-76
2024/02/28 07:20:26;;;;;;;72.10;29.83;;;;;;;;;;5064749;28;20238;-76
2024/02/28 07:22:52;;;;;;;80.50;31.03;;;;;;;;;;5056223;28;20454;-76
2024/02/28 07:25:17;;;;;;;75.47;30.60;;;;;;;;;;5058089;28;20181;-76
2024/02/28 07:27:43;;;;;;;72.23;31.30;;;;;;;;;;5062278;28;20181;-76
2024/02/28 07:30:08;;;;;;;72.83;30.83;;;;;;;;;;5063932;28;20247;-74
2024/02/28 07:32:34;;;;;;;76.17;31.27;;;;;;;;;;5064656;28;20246;-74
2024/02/28 07:35:03;;;;;;;75.37;31.47;;;;;;;;;;5062229;28;20751;-74
2024/02/28 07:37:29;;;;;;;80.03;32.77;;;;;;;;;;5063674;28;20373;-73
2024/02/28 07:39:54;;;;;;;80.07;31.87;;;;;;;;;;5067327;28;20250;-74
2024/02/28 07:42:19;;;;;;;79.03;32.30;;;;;;;;;;5065138;28;20553;-75
2024/02/28 07:44:45;;;;;;;79.67;32.30;;;;;;;;;;5043171;28;20182;-75
2024/02/28 07:47:10;;;;;;;79.20;32.93;;;;;;;;;;5042601;28;20185;-74
2024/02/28 07:49:36;;;;;;;85.47;34.00;;;;;;;;;;5059528;28;20200;-75
2024/02/28 07:52:01;;;;;;;78.80;33.43;;;;;;;;;;5064128;28;20193;-75
2024/02/28 07:54:27;;;;;;;69.10;32.00;;;;;;;;;;5059798;28;20205;-74
2024/02/28 07:56:52;;;;;;;77.63;34.17;;;;;;;;;;5034888;28;20192;-74
2024/02/28 07:59:18;;;;;;;78.47;33.70;;;;;;;;;;5065652;28;20184;-74
2024/02/28 08:01:44;;;;;;;74.33;31.83;;;;;;;;;;5067891;28;20330;-74
2024/02/28 08:04:10;;;;;;;70.70;32.20;;;;;;;;;;5068726;28;20260;-74
2024/02/28 08:06:35;;;;;;;70.90;31.97;;;;;;;;;;5064399;28;20315;-75
2024/02/28 08:09:04;;;;;;;63.97;29.93;;;;;;;;;;5048487;28;20188;-75
2024/02/28 08:11:29;;;;;;;69.30;32.50;;;;;;;;;;5066618;28;20597;-75
2024/02/28 08:13:55;;;;;;;68.97;33.33;;;;;;;;;;5066295;28;20192;-75
2024/02/28 08:16:20;;;;;;;59.03;30.07;;;;;;;;;;5066083;28;20263;-74
2024/02/28 08:18:46;;;;;;;60.30;30.73;;;;;;;;;;5067893;28;20216;-74
2024/02/28 08:21:11;;;;;;;61.20;31.07;;;;;;;;;;5066094;28;20188;-74
2024/02/28 08:23:36;;;;;;;63.73;30.40;;;;;;;;;;5065625;28;20193;-74
2024/02/28 08:26:03;;;;;;;57.37;29.93;;;;;;;;;;5068749;28;20547;-73
2024/02/28 08:28:29;;;;;;;55.97;29.40;;;;;;;;;;5037124;28;20688;-75
2024/02/28 08:30:54;;;;;;;56.67;29.50;;;;;;;;;;5061059;28;20389;-74
2024/02/28 08:33:20;;;;;;;62.33;31.00;;;;;;;;;;5050322;28;20653;-74
2024/02/28 08:35:45;;;;;;;59.07;30.10;;;;;;;;;;5068079;28;20244;-75
2024/02/28 08:38:10;;;;;;;65.70;31.13;;;;;;;;;;5068628;28;20649;-75
2024/02/28 08:40:36;;;;;;;61.87;31.13;;;;;;;;;;5068854;28;20613;-75
2024/02/28 08:43:01;;;;;;;59.40;31.53;;;;;;;;;;5062142;28;20269;-75
2024/02/28 08:45:27;;;;;;;60.47;31.93;;;;;;;;;;5066002;28;20272;-76
2024/02/28 08:47:53;;;;;;;53.70;30.57;;;;;;;;;;5060017;28;20188;-75
2024/02/28 08:50:18;;;;;;;55.87;30.90;;;;;;;;;;5054962;28;20186;-75
2024/02/28 08:52:44;;;;;;;52.83;30.00;;;;;;;;;;5057343;28;20688;-75
2024/02/28 08:55:09;;;;;;;52.97;29.90;;;;;;;;;;5047329;28;20196;-75
2024/02/28 08:57:35;;;;;;;53.43;29.63;;;;;;;;;;5061818;28;20184;-75
2024/02/28 09:00:00;;;;;;;51.87;29.77;;;;;;;;;;5083789;28;20196;-77
2024/02/28 09:02:26;;;;;;;47.67;29.27;;;;;;;;;;5064354;28;20253;-76
2024/02/28 09:04:52;;;;;;;48.37;29.23;;;;;;;;;;5066335;28;20219;-75
2024/02/28 09:07:21;;;;;;;52.83;31.27;;;;;;;;;;5065400;28;20223;-75
2024/02/28 09:09:47;;;;;;;49.30;29.53;;;;;;;;;;5058344;28;20754;-76
2024/02/28 09:12:13;;;;;;;49.53;29.97;;;;;;;;;;5047948;28;20185;-75
2024/02/28 09:14:39;;;;;;;46.20;28.87;;;;;;;;;;5047843;28;20212;-76
2024/02/28 09:17:05;;;;;;;43.77;27.83;;;;;;;;;;5051380;28;20194;-76
2024/02/28 09:19:31;;;;;;;48.47;29.07;;;;;;;;;;5057918;28;20203;-75
2024/02/28 09:21:57;;;;;;;51.90;29.90;;;;;;;;;;5055093;28;20185;-75
2024/02/28 09:24:24;;;;;;;47.83;27.77;;;;;;;;;;5040986;28;20177;-75
2024/02/28 09:26:49;;;;;;;47.70;29.53;;;;;;;;;;5058152;28;20260;-76
2024/02/28 09:29:15;;;;;;;49.20;28.83;;;;;;;;;;5055521;28;20281;-76
2024/02/28 09:31:41;;;;;;;42.63;27.03;;;;;;;;;;5057395;28;20197;-77
2024/02/28 09:34:09;;;;;;;46.57;28.97;;;;;;;;;;5036669;28;20320;-76
2024/02/28 09:36:45;;;;;;;46.90;28.55;;;;;;;;;;5059626;28;20370;-76
2024/02/28 09:39:12;;;;;;;42.85;28.20;;;;;;;;;;5059913;28;20272;-76
2024/02/28 09:41:38;;;;;;;44.33;29.30;;;;;;;;;;5057733;28;20197;-75
2024/02/28 09:44:06;;;;;;;43.87;29.60;;;;;;;;;;5067032;28;20545;-75
2024/02/28 09:46:34;;;;;;;44.10;27.97;;;;;;;;;;5068312;28;20235;-75
2024/02/28 09:49:03;;;;;;;44.00;27.55;;;;;;;;;;5063030;28;20193;-76
2024/02/28 09:51:32;;;;;;;43.92;27.88;;;;;;;;;;5047171;28;20176;-76
2024/02/28 09:54:00;;;;;;;39.57;26.80;;;;;;;;;;5061793;28;20195;-76
2024/02/28 09:56:27;;;;;;;46.88;28.63;;;;;;;;;;5058437;28;20648;-76
2024/02/28 09:58:54;;;;;;;43.90;28.40;;;;;;;;;;5044537;28;20186;-76
2024/02/28 10:01:22;;;;;;;47.83;29.17;;;;;;;;;;5063929;28;20239;-75
2024/02/28 10:03:52;;;;;;;44.60;29.20;;;;;;;;;;5073447;28;20193;-76
2024/02/28 10:06:18;;;;;;;46.47;30.45;;;;;;;;;;5061532;28;20180;-75
2024/02/28 10:08:47;;;;;;;43.33;29.05;;;;;;;;;;5046825;28;20654;-76
2024/02/28 10:11:21;;;;;;;45.85;29.75;;;;;;;;;;5086142;28;20224;-76
2024/02/28 10:13:50;;;;;;;46.75;28.95;;;;;;;;;;5062239;28;20204;-76
2024/02/28 10:16:16;;;;;;;49.33;30.03;;;;;;;;;;5081239;28;20232;-76
2024/02/28 10:18:45;;;;;;;46.73;31.47;;;;;;;;;;5067267;28;20607;-77
2024/02/28 10:21:17;;;;;;;48.70;31.00;;;;;;;;;;5047135;28;20323;-76
2024/02/28 10:23:44;;;;;;;51.50;30.20;;;;;;;;;;5063261;28;20189;-77
2024/02/28 10:26:10;;;;;;;46.60;30.27;;;;;;;;;;5063727;28;20640;-76
2024/02/28 10:28:39;;;;;;;52.13;31.40;;;;;;;;;;5052739;28;20185;-77
2024/02/28 10:31:08;;;;;;;48.67;31.73;;;;;;;;;;5054585;28;20212;-75
2024/02/28 10:33:35;;;;;;;48.53;30.83;;;;;;;;;;5072764;28;20188;-75
2024/02/28 10:36:02;;;;;;;47.97;29.83;;;;;;;;;;5070095;28;20320;-76
2024/02/28 10:38:28;;;;;;;46.70;29.95;;;;;;;;;;5063869;28;20184;-76
2024/02/28 10:40:54;;;;;;;45.28;30.27;;;;;;;;;;5068127;28;20734;-77
2024/02/28 10:43:20;;;;;;;45.17;30.03;;;;;;;;;;5066974;28;20193;-76
2024/02/28 10:45:46;;;;;;;45.42;29.38;;;;;;;;;;5069513;28;20225;-76
2024/02/28 10:48:14;;;;;;;43.30;30.10;;;;;;;;;;5070015;28;20674;-76
2024/02/28 10:50:40;;;;;;;46.00;29.77;;;;;;;;;;5057662;28;20694;-77
2024/02/28 10:53:14;;;;;;;46.50;29.20;;;;;;;;;;5045617;28;20185;-76
2024/02/28 10:55:41;;;;;;;45.50;29.27;;;;;;;;;;5065698;28;20703;-77
2024/02/28 10:58:09;;;;;;;46.83;30.17;;;;;;;;;;5062539;28;20188;-76
2024/02/28 11:00:38;;;;;;;46.50;29.77;;;;;;;;;;5051447;28;20221;-76
2024/02/28 11:03:04;;;;;;;49.67;30.63;;;;;;;;;;5059072;28;20203;-76
2024/02/28 11:05:40;;;;;;;48.95;29.90;;;;;;;;;;5066397;28;20185;-77
2024/02/28 11:08:28;;;;;;;46.30;29.73;;;;;;;;;;5068171;28;20521;-76
2024/02/28 11:10:57;;;;;;;45.67;29.52;;;;;;;;;;5063299;28;20197;-76
2024/02/28 11:13:27;;;;;;;49.65;31.20;;;;;;;;;;5068956;28;20612;-76
2024/02/28 11:15:57;;;;;;;47.33;29.60;;;;;;;;;;5066426;28;20234;-77
2024/02/28 11:18:22;;;;;;;48.25;30.27;;;;;;;;;;5066887;28;20196;-76
2024/02/28 11:20:48;;;;;;;49.63;30.15;;;;;;;;;;5064470;28;20251;-76
2024/02/28 11:23:14;;;;;;;49.10;30.37;;;;;;;;;;5045424;28;20280;-77
2024/02/28 11:25:40;;;;;;;45.23;29.00;;;;;;;;;;5066303;28;20216;-77
2024/02/28 11:28:06;;;;;;;48.87;30.00;;;;;;;;;;5049368;28;20189;-76
2024/02/28 11:30:33;;;;;;;49.73;31.80;;;;;;;;;;5064887;28;20204;-76
2024/02/28 11:32:58;;;;;;;47.03;31.38;;;;;;;;;;5066876;28;20272;-76
2024/02/28 11:35:25;;;;;;;46.28;30.55;;;;;;;;;;5061086;28;20312;-77
2024/02/28 11:37:53;;;;;;;47.88;30.60;;;;;;;;;;5058528;28;20184;-77
2024/02/28 11:40:19;;;;;;;51.63;31.50;;;;;;;;;;5052251;28;20216;-76
2024/02/28 11:42:44;;;;;;;49.03;30.70;;;;;;;;;;5056731;28;20189;-77
2024/02/28 11:45:10;;;;;;;46.88;29.35;;;;;;;;;;5064865;28;20494;-77
2024/02/28 11:47:36;;;;;;;51.70;30.30;;;;;;;;;;5083680;28;20262;-76
2024/02/28 11:50:03;;;;;;;45.50;29.17;;;;;;;;;;5070059;28;20187;-76
2024/02/28 11:52:32;;;;;;;51.22;27.98;;;;;;;;;;5061919;28;20311;-77
2024/02/28 11:54:57;;;;;;;50.60;29.08;;;;;;;;;;5069590;28;20240;-77
2024/02/28 11:57:23;;;;;;;44.67;27.85;;;;;;;;;;5069125;28;20231;-77
2024/02/28 11:59:48;;;;;;;48.15;29.63;;;;;;;;;;5069606;28;20268;-77
2024/02/28 12:02:18;;;;;;;47.53;28.20;;;;;;;;;;5066865;28;20195;-77
2024/02/28 12:04:44;;;;;;;47.08;28.70;;;;;;;;;;5064751;28;20664;-76
2024/02/28 12:07:10;;;;;;;51.38;29.42;;;;;;;;;;5051072;28;20209;-77
2024/02/28 12:09:36;;;;;;;48.33;28.55;;;;;;;;;;5066428;28;20213;-77
2024/02/28 12:12:03;;;;;;;42.22;27.65;;;;;;;;;;5065289;28;20184;-77
2024/02/28 12:14:32;;;;;;;42.22;26.30;;;;;;;;;;5058831;28;20204;-77
2024/02/28 12:16:57;;;;;;;41.88;26.42;;;;;;;;;;5067399;28;20648;-77
2024/02/28 12:19:24;;;;;;;45.45;26.75;;;;;;;;;;5050533;28;20208;-77
2024/02/28 12:21:49;;;;;;;39.95;25.50;;;;;;;;;;5042615;28;20687;-77
2024/02/28 12:24:15;;;;;;;39.67;25.88;;;;;;;;;;5066867;28;20198;-77
2024/02/28 12:26:40;;;;;;;45.85;26.67;;;;;;;;;;5048968;28;20257;-77
2024/02/28 12:29:07;;;;;;;40.30;25.95;;;;;;;;;;5070189;28;20188;-77
2024/02/28 12:31:32;;;;;;;43.70;26.65;;;;;;;;;;5045504;28;20180;-77
2024/02/28 12:33:58;;;;;;;39.97;25.85;;;;;;;;;;5073213;28;20529;-76
2024/02/28 12:36:24;;;;;;;42.80;26.75;;;;;;;;;;5050768;28;20212;-77
2024/02/28 12:38:50;;;;;;;47.72;27.02;;;;;;;;;;5060250;28;20192;-77
2024/02/28 12:41:17;;;;;;;41.17;26.40;;;;;;;;;;5062449;28;20177;-77
2024/02/28 12:43:43;;;;;;;47.50;26.67;;;;;;;;;;5047959;28;20197;-77
2024/02/28 12:46:08;;;;;;;40.22;25.73;;;;;;;;;;5057152;28;20185;-77
2024/02/28 12:48:38;;;;;;;46.92;28.60;;;;;;;;;;5063038;28;20192;-77
2024/02/28 12:51:05;;;;;;;44.97;27.35;;;;;;;;;;5044938;28;20181;-77
2024/02/28 12:53:31;;;;;;;44.95;26.70;;;;;;;;;;5065235;28;20180;-76
2024/02/28 12:55:56;;;;;;;45.72;27.17;;;;;;;;;;5064150;28;20228;-77
2024/02/28 12:58:23;;;;;;;47.13;26.95;;;;;;;;;;5067632;28;20198;-77
2024/02/28 13:00:49;;;;;;;48.30;27.48;;;;;;;;;;5058663;28;20192;-76
2024/02/28 13:03:16;;;;;;;44.83;26.17;;;;;;;;;;5067221;28;20644;-77
2024/02/28 13:05:41;;;;;;;45.28;25.58;;;;;;;;;;5060286;28;20554;-77
2024/02/28 13:08:07;;;;;;;43.45;25.27;;;;;;;;;;5067535;28;20192;-77
2024/02/28 13:10:35;;;;;;;49.47;26.45;;;;;;;;;;5056127;28;20180;-77
2024/02/28 13:13:02;;;;;;;39.35;24.23;;;;;;;;;;5068396;28;20217;-76
2024/02/28 13:15:27;;;;;;;47.40;27.05;;;;;;;;;;5078138;28;20279;-76
2024/02/28 13:17:53;;;;;;;47.80;27.33;;;;;;;;;;5070163;28;20509;-77
2024/02/28 13:20:18;;;;;;;47.72;27.45;;;;;;;;;;5072535;28;20265;-77
2024/02/28 13:22:44;;;;;;;45.33;26.90;;;;;;;;;;5048973;28;20240;-77
2024/02/28 13:25:11;;;;;;;50.13;27.95;;;;;;;;;;5069216;28;20176;-77
2024/02/28 13:27:36;;;;;;;46.97;27.75;;;;;;;;;;5048208;28;20652;-77
2024/02/28 13:30:03;;;;;;;48.13;27.23;;;;;;;;;;5065345;28;20185;-77
2024/02/28 13:32:28;;;;;;;48.80;27.92;;;;;;;;;;5069924;28;20579;-77
2024/02/28 13:34:54;;;;;;;47.95;27.90;;;;;;;;;;5051284;28;20260;-77
2024/02/28 13:37:19;;;;;;;45.45;25.77;;;;;;;;;;5070280;28;20678;-77
2024/02/28 13:39:45;;;;;;;46.22;26.02;;;;;;;;;;5053482;28;20208;-77
2024/02/28 13:42:11;;;;;;;48.25;27.27;;;;;;;;;;5067779;28;20605;-76
2024/02/28 13:44:37;;;;;;;45.03;27.27;;;;;;;;;;5065981;28;20189;-77
2024/02/28 13:47:03;;;;;;;52.35;28.13;;;;;;;;;;5061025;28;20186;-76
2024/02/28 13:49:29;;;;;;;51.53;28.33;;;;;;;;;;5067154;28;20216;-77
2024/02/28 13:51:55;;;;;;;51.40;27.92;;;;;;;;;;5042468;28;20606;-76
2024/02/28 13:54:20;;;;;;;55.20;29.95;;;;;;;;;;5043709;28;20193;-77
2024/02/28 13:56:46;;;;;;;53.58;28.50;;;;;;;;;;5053374;28;20549;-76
2024/02/28 13:59:12;;;;;;;57.35;29.70;;;;;;;;;;5086148;28;20695;-77
2024/02/28 14:01:38;;;;;;;55.00;29.73;;;;;;;;;;5068067;28;20189;-77
2024/02/28 14:04:04;;;;;;;55.25;28.80;;;;;;;;;;5052527;28;20275;-77
2024/02/28 14:06:30;;;;;;;52.15;28.65;;;;;;;;;;5062577;28;20203;-76
2024/02/28 14:08:55;;;;;;;55.85;30.17;;;;;;;;;;5060276;28;20252;-77